createdAt,value
2023-05-16T00:01:30.226Z,99722.34
2023-05-16T00:03:57.556Z,99748.44
2023-05-16T00:06:24.035Z,99745.56
2023-05-16T00:08:50.626Z,99796.31
2023-05-16T00:11:17.386Z,99787.78
2023-05-16T00:13:44.341Z,99802.34
2023-05-16T00:16:11.613Z,99798.66
2023-05-16T00:18:38.829Z,99783.47
2023-05-16T00:21:05.373Z,99782.09
2023-05-16T00:23:31.928Z,99778.06
2023-05-16T00:25:58.334Z,99805.09
2023-05-16T00:28:24.889Z,99827.13
2023-05-16T00:30:51.266Z,99809.53
2023-05-16T00:33:17.746Z,99809.53
2023-05-16T00:35:44.262Z,99791.06
2023-05-16T00:38:10.638Z,99783.47
2023-05-16T00:40:37.056Z,99760.91
2023-05-16T00:43:03.404Z,99775.88
2023-05-16T00:45:29.874Z,99739.94
2023-05-16T00:47:56.529Z,99764.03
2023-05-16T00:50:22.930Z,99803.25
2023-05-16T00:52:49.289Z,99830.78
2023-05-16T00:55:15.821Z,99811.38
2023-05-16T00:57:42.216Z,99830.53
2023-05-16T01:00:12.138Z,99830.53
2023-05-16T01:02:38.907Z,99823.91
2023-05-16T01:05:05.610Z,99795.91
2023-05-16T01:07:32.076Z,99782.25
2023-05-16T01:09:58.666Z,99747.84
2023-05-16T01:12:34.092Z,99754.03
2023-05-16T01:15:02.860Z,99729.44
2023-05-16T01:17:29.221Z,99722.06
2023-05-16T01:20:38.331Z,99733.63
2023-05-16T01:23:16.592Z,99722.34
2023-05-16T01:26:08.608Z,99741.13
2023-05-16T01:28:35.325Z,99763.84
2023-05-16T01:31:01.701Z,99736.00
2023-05-16T01:33:28.300Z,99701.25
2023-05-16T01:36:03.942Z,99650.56
2023-05-16T01:38:33.969Z,99652.06
2023-05-16T01:41:03.540Z,99640.88
2023-05-16T01:43:38.708Z,99583.75
2023-05-16T01:46:10.743Z,99576.94
2023-05-16T01:48:43.758Z,99586.22
2023-05-16T01:51:10.093Z,99635.34
2023-05-16T01:53:39.533Z,99652.06
2023-05-16T01:56:09.378Z,99617.91
2023-05-16T01:58:36.803Z,99613.66
2023-05-16T02:01:04.325Z,99582.31
2023-05-16T02:03:31.375Z,99561.22
2023-05-16T02:05:58.009Z,99500.38
2023-05-16T02:08:25.120Z,99466.28
2023-05-16T02:10:51.618Z,99450.34
2023-05-16T02:13:18.124Z,99415.47
2023-05-16T02:15:44.769Z,99316.31
2023-05-16T02:18:11.341Z,99283.28
2023-05-16T02:20:37.843Z,99326.56
2023-05-16T02:23:04.213Z,99386.44
2023-05-16T02:25:30.618Z,99352.78
2023-05-16T02:27:56.999Z,99352.00
2023-05-16T02:30:23.391Z,99320.41
2023-05-16T02:32:50.059Z,99322.78
2023-05-16T02:35:16.427Z,99349.31
2023-05-16T02:37:42.787Z,99336.13
2023-05-16T02:40:09.901Z,99368.22
2023-05-16T02:42:36.245Z,99361.66
2023-05-16T02:45:04.242Z,99377.47
2023-05-16T02:47:30.784Z,99416.91
2023-05-16T02:49:57.237Z,99415.91
2023-05-16T02:52:23.649Z,99419.59
2023-05-16T02:55:09.394Z,99417.25
2023-05-16T02:57:37.376Z,99391.38
2023-05-16T03:00:06.184Z,99441.97
2023-05-16T03:02:32.823Z,99510.16
2023-05-16T03:04:59.357Z,99550.44
2023-05-16T03:07:25.814Z,99534.56
2023-05-16T03:09:52.364Z,99529.31
2023-05-16T03:12:18.700Z,99541.06
2023-05-16T03:14:45.492Z,99575.69
2023-05-16T03:17:11.856Z,99589.00
2023-05-16T03:19:38.258Z,99575.31
2023-05-16T03:22:04.638Z,99550.63
2023-05-16T03:24:31.131Z,99558.38
2023-05-16T03:26:57.617Z,99574.03
2023-05-16T03:29:24.223Z,99506.34
2023-05-16T03:31:50.704Z,99535.03
2023-05-16T03:34:17.075Z,99541.22
2023-05-16T03:36:43.514Z,99549.06
2023-05-16T03:39:09.872Z,99479.41
2023-05-16T03:41:36.240Z,99460.81
2023-05-16T03:44:02.604Z,99470.75
2023-05-16T03:46:29.063Z,99327.50
2023-05-16T03:48:55.803Z,99260.00
2023-05-16T03:51:22.167Z,99260.38
2023-05-16T03:53:48.732Z,99151.94
2023-05-16T03:56:15.075Z,99157.66
2023-05-16T03:58:41.620Z,99131.16
2023-05-16T04:01:07.986Z,99110.38
2023-05-16T04:03:34.342Z,99085.44
2023-05-16T04:06:00.979Z,98962.44
2023-05-16T04:08:27.576Z,98721.13
2023-05-16T04:10:53.949Z,98481.66
2023-05-16T04:13:20.446Z,98214.56
2023-05-16T04:15:46.945Z,97776.94
2023-05-16T04:18:13.456Z,97320.19
2023-05-16T04:20:39.894Z,96760.81
2023-05-16T04:23:06.247Z,96407.97
2023-05-16T04:25:32.690Z,96036.69
2023-05-16T04:27:59.094Z,95909.91
2023-05-16T04:30:25.826Z,95415.44
2023-05-16T04:32:52.254Z,95461.91
2023-05-16T04:35:18.866Z,95605.38
2023-05-16T04:37:45.597Z,95727.63
2023-05-16T04:40:13.072Z,95921.06
2023-05-16T04:42:39.810Z,96067.63
2023-05-16T04:45:07.327Z,96386.94
2023-05-16T04:47:33.766Z,96531.38
2023-05-16T04:50:00.838Z,96649.41
2023-05-16T04:52:27.190Z,96859.78
2023-05-16T04:54:53.590Z,96989.31
2023-05-16T04:57:20.227Z,97010.16
2023-05-16T04:59:46.601Z,97384.09
2023-05-16T05:02:13.046Z,97640.50
2023-05-16T05:04:39.758Z,97653.41
2023-05-16T05:07:06.186Z,97787.47
2023-05-16T05:09:32.645Z,97999.06
2023-05-16T05:11:59.066Z,98138.59
2023-05-16T05:14:25.441Z,98152.63
2023-05-16T05:16:51.824Z,98188.69
2023-05-16T05:19:18.481Z,98298.56
2023-05-16T05:21:45.403Z,98352.94
2023-05-16T05:24:11.763Z,98505.69
2023-05-16T05:26:38.351Z,98581.72
2023-05-16T05:29:06.049Z,98579.28
2023-05-16T05:31:34.649Z,98662.16
2023-05-16T05:34:01.195Z,98679.22
2023-05-16T05:36:27.651Z,98738.97
2023-05-16T05:38:54.360Z,98795.00
2023-05-16T05:41:21.741Z,98829.00
2023-05-16T05:43:48.123Z,98836.25
2023-05-16T05:46:14.530Z,98705.13
2023-05-16T05:48:41.094Z,98416.66
2023-05-16T05:51:07.435Z,98114.03
2023-05-16T05:53:34.483Z,97735.59
2023-05-16T05:56:00.867Z,97522.94
2023-05-16T05:58:27.222Z,97319.50
2023-05-16T06:00:53.560Z,97090.56
2023-05-16T06:03:21.293Z,97115.94
2023-05-16T06:05:48.124Z,97220.75
2023-05-16T06:08:14.668Z,97316.31
2023-05-16T06:10:41.277Z,97450.19
2023-05-16T06:13:07.629Z,97519.00
2023-05-16T06:15:34.008Z,97738.09
2023-05-16T06:18:00.614Z,97905.19
2023-05-16T06:20:27.019Z,98085.09
2023-05-16T06:22:53.608Z,98275.72
2023-05-16T06:25:20.015Z,98397.25
2023-05-16T06:27:46.444Z,98506.56
2023-05-16T06:30:13.122Z,98693.28
2023-05-16T06:32:41.362Z,98750.19
2023-05-16T06:35:09.379Z,98837.34
2023-05-16T06:37:35.929Z,98965.47
2023-05-16T06:40:02.359Z,99007.38
2023-05-16T06:42:28.777Z,99061.50
2023-05-16T06:44:55.277Z,99141.66
2023-05-16T06:47:21.856Z,99280.56
2023-05-16T06:49:48.472Z,99404.88
2023-05-16T06:52:14.871Z,99564.59
2023-05-16T06:54:41.266Z,99637.00
2023-05-16T06:57:08.592Z,99697.56
2023-05-16T06:59:35.873Z,99868.72
2023-05-16T07:02:02.476Z,100036.44
2023-05-16T07:04:28.876Z,100094.88
2023-05-16T07:06:55.271Z,100126.41
2023-05-16T07:09:21.724Z,100193.09
2023-05-16T07:11:48.095Z,100233.13
2023-05-16T07:14:14.689Z,100290.59
2023-05-16T07:16:41.185Z,100285.94
2023-05-16T07:19:08.577Z,100311.03
2023-05-16T07:21:35.261Z,100313.75
2023-05-16T07:24:01.826Z,100369.09
2023-05-16T07:26:28.263Z,100405.94
2023-05-16T07:28:55.179Z,100439.38
2023-05-16T07:31:21.727Z,100416.09
2023-05-16T07:33:49.325Z,100462.56
2023-05-16T07:36:17.457Z,100513.41
2023-05-16T07:38:44.738Z,100542.94
2023-05-16T07:41:11.333Z,100537.44
2023-05-16T07:43:37.818Z,100597.84
2023-05-16T07:46:04.664Z,100598.06
2023-05-16T07:48:31.097Z,100595.13
2023-05-16T07:50:57.995Z,100625.72
2023-05-16T07:53:24.468Z,100620.41
2023-05-16T07:55:51.082Z,100612.94
2023-05-16T07:58:17.473Z,100630.13
2023-05-16T08:00:43.867Z,100628.16
2023-05-16T08:03:10.618Z,100602.94
2023-05-16T08:05:37.266Z,100609.34
2023-05-16T08:08:07.079Z,100606.88
2023-05-16T08:10:36.217Z,100603.81
2023-05-16T08:13:02.740Z,100621.91
2023-05-16T08:15:30.521Z,100642.63
2023-05-16T08:17:59.904Z,100670.94
2023-05-16T08:20:26.585Z,100680.34
2023-05-16T08:22:53.188Z,100709.16
2023-05-16T08:25:19.714Z,100722.63
2023-05-16T08:27:46.729Z,100712.56
2023-05-16T08:30:14.110Z,100735.84
2023-05-16T08:32:40.596Z,100769.66
2023-05-16T08:35:07.557Z,100766.97
2023-05-16T08:37:34.897Z,100819.56
2023-05-16T08:40:01.549Z,100838.78
2023-05-16T08:42:27.947Z,100858.09
2023-05-16T08:44:54.991Z,100843.34
2023-05-16T08:47:21.961Z,100843.59
2023-05-16T08:49:48.592Z,100857.34
2023-05-16T08:52:17.674Z,100864.16
2023-05-16T08:54:44.337Z,100875.72
2023-05-16T08:57:11.314Z,100865.31
2023-05-16T08:59:37.720Z,100856.50
2023-05-16T09:02:05.094Z,100862.84
2023-05-16T09:04:31.720Z,100856.75
2023-05-16T09:06:58.274Z,100865.78
2023-05-16T09:09:24.700Z,100842.53
2023-05-16T09:11:51.110Z,100873.88
2023-05-16T09:14:17.813Z,100869.59
2023-05-16T09:16:45.550Z,100892.31
2023-05-16T09:19:13.079Z,100891.13
2023-05-16T09:21:39.507Z,100889.66
2023-05-16T09:24:09.505Z,100890.06
2023-05-16T09:26:37.875Z,100877.53
2023-05-16T09:29:13.859Z,100873.13
2023-05-16T09:31:40.395Z,100889.31
2023-05-16T09:34:12.128Z,100881.13
2023-05-16T09:36:38.610Z,100882.84
2023-05-16T09:39:06.850Z,100874.72
2023-05-16T09:41:34.271Z,100874.44
2023-05-16T09:44:01.727Z,100873.38
2023-05-16T09:46:28.371Z,100882.16
2023-05-16T09:48:54.817Z,100890.06
2023-05-16T09:51:24.358Z,100888.88
2023-05-16T09:53:50.773Z,100887.56
2023-05-16T09:56:17.145Z,100887.56
2023-05-16T09:58:44.370Z,100892.09
2023-05-16T10:01:11.202Z,100878.41
2023-05-16T10:03:39.286Z,100896.56
2023-05-16T10:06:06.775Z,100900.81
2023-05-16T10:08:36.439Z,100905.75
2023-05-16T10:11:06.040Z,100898.00
2023-05-16T10:13:33.868Z,100902.59
2023-05-16T10:16:01.681Z,100915.56
2023-05-16T10:18:31.691Z,100899.31
2023-05-16T10:21:09.605Z,100889.53
2023-05-16T10:23:38.278Z,100885.25
2023-05-16T10:26:06.047Z,100906.16
2023-05-16T10:28:32.747Z,100902.56
2023-05-16T10:30:59.177Z,100911.63
2023-05-16T10:33:26.148Z,100907.13
2023-05-16T10:35:52.788Z,100903.66
2023-05-16T10:38:19.688Z,100900.00
2023-05-16T10:40:46.357Z,100889.91
2023-05-16T10:43:14.155Z,100899.91
2023-05-16T10:45:41.883Z,100887.00
2023-05-16T10:48:11.651Z,100905.69
2023-05-16T10:50:44.047Z,100903.94
2023-05-16T10:53:19.750Z,100904.63
2023-05-16T10:55:58.703Z,100920.75
2023-05-16T10:58:25.448Z,100917.81
2023-05-16T11:01:18.465Z,100918.66
2023-05-16T11:03:57.315Z,100903.50
2023-05-16T11:06:53.586Z,100905.44
2023-05-16T11:09:22.316Z,100910.69
2023-05-16T11:11:51.849Z,100905.50
2023-05-16T11:14:47.598Z,100905.13
2023-05-16T11:17:15.429Z,100917.03
2023-05-16T11:19:45.943Z,100907.91
2023-05-16T11:22:23.467Z,100913.38
2023-05-16T11:25:03.392Z,100909.91
2023-05-16T11:27:29.788Z,100923.41
2023-05-16T11:30:02.845Z,100925.00
2023-05-16T11:32:30.272Z,100919.88
2023-05-16T11:34:56.751Z,100924.94
2023-05-16T11:37:23.253Z,100897.53
2023-05-16T11:39:49.840Z,100930.72
2023-05-16T11:42:16.598Z,100919.31
2023-05-16T11:44:43.031Z,100922.84
2023-05-16T11:47:09.665Z,100931.88
2023-05-16T11:49:36.313Z,100922.56
2023-05-16T11:52:03.900Z,100931.03
2023-05-16T11:54:31.790Z,100932.84
2023-05-16T11:56:58.211Z,100926.75
2023-05-16T11:59:24.669Z,100908.47
2023-05-16T12:01:51.265Z,100903.59
2023-05-16T12:04:18.047Z,100903.81
2023-05-16T12:06:45.153Z,100895.75
2023-05-16T12:09:12.550Z,100897.56
2023-05-16T12:11:45.490Z,100923.03
2023-05-16T12:14:13.018Z,100917.50
2023-05-16T12:16:39.814Z,100930.28
2023-05-16T12:19:06.467Z,100922.13
2023-05-16T12:21:32.931Z,100925.16
2023-05-16T12:23:59.464Z,100920.25
2023-05-16T12:26:31.040Z,100914.06
2023-05-16T12:29:00.702Z,100927.66
2023-05-16T12:31:32.204Z,100919.47
2023-05-16T12:33:58.915Z,100924.78
2023-05-16T12:36:26.305Z,100942.69
2023-05-16T12:38:53.364Z,100915.41
2023-05-16T12:41:21.486Z,100913.53
2023-05-16T12:43:51.047Z,100916.91
2023-05-16T12:46:19.703Z,100913.69
2023-05-16T12:48:47.997Z,100926.69
2023-05-16T12:51:18.587Z,100927.03
2023-05-16T12:53:57.747Z,100915.84
2023-05-16T12:56:32.419Z,100917.28
2023-05-16T12:58:58.889Z,100908.41
2023-05-16T13:01:25.491Z,100913.16
2023-05-16T13:03:52.222Z,100917.19
2023-05-16T13:06:18.726Z,100915.25
2023-05-16T13:08:45.277Z,100919.75
2023-05-16T13:11:11.870Z,100924.59
2023-05-16T13:13:38.414Z,100914.25
2023-05-16T13:16:05.235Z,100905.50
2023-05-16T13:18:31.998Z,100906.88
2023-05-16T13:20:58.512Z,100915.69
2023-05-16T13:23:25.098Z,100903.19
2023-05-16T13:25:53.001Z,100913.88
2023-05-16T13:28:19.498Z,100918.63
2023-05-16T13:30:46.010Z,100929.13
2023-05-16T13:33:12.582Z,100931.75
2023-05-16T13:35:39.107Z,100928.56
2023-05-16T13:38:05.676Z,100944.94
2023-05-16T13:40:32.111Z,100937.44
2023-05-16T13:42:59.025Z,100941.38
2023-05-16T13:45:26.256Z,100942.59
2023-05-16T13:47:52.904Z,100931.16
2023-05-16T13:50:19.522Z,100933.59
2023-05-16T13:52:47.467Z,100945.31
2023-05-16T13:55:16.633Z,100941.69
2023-05-16T13:57:43.095Z,100944.34
2023-05-16T14:02:42.457Z,100942.25
2023-05-16T14:05:09.534Z,100942.63
2023-05-16T14:07:36.295Z,100949.44
2023-05-16T14:10:04.128Z,100934.16
2023-05-16T14:12:31.131Z,100956.91
2023-05-16T14:14:57.566Z,100954.44
2023-05-16T14:17:24.014Z,100953.59
2023-05-16T14:19:50.504Z,100956.66
2023-05-16T14:22:18.772Z,100969.22
2023-05-16T14:24:45.419Z,100954.72
2023-05-16T14:27:12.137Z,100948.78
2023-05-16T14:29:38.599Z,100947.41
2023-05-16T14:32:05.499Z,100965.97
2023-05-16T14:34:32.698Z,100967.44
2023-05-16T14:36:59.210Z,100945.53
2023-05-16T14:39:27.242Z,100951.28
2023-05-16T14:41:53.684Z,100956.94
2023-05-16T14:44:24.662Z,100961.22
2023-05-16T14:46:51.867Z,100962.44
2023-05-16T14:49:18.288Z,100964.13
2023-05-16T14:51:50.332Z,100959.09
2023-05-16T14:54:17.143Z,100973.94
2023-05-16T14:56:45.386Z,100976.03
2023-05-16T14:59:12.642Z,100984.63
2023-05-16T15:01:39.288Z,100982.91
2023-05-16T15:04:05.778Z,100975.88
2023-05-16T15:06:32.221Z,100982.59
2023-05-16T15:08:58.890Z,100974.69
2023-05-16T15:11:25.927Z,100986.31
2023-05-16T15:13:52.427Z,100986.50
2023-05-16T15:16:18.953Z,100992.44
2023-05-16T15:18:45.392Z,101005.13
2023-05-16T15:21:11.865Z,101006.25
2023-05-16T15:23:38.369Z,101004.19
2023-05-16T15:26:05.118Z,100991.06
2023-05-16T15:28:31.582Z,101009.31
2023-05-16T15:30:58.050Z,100996.97
2023-05-16T15:33:24.449Z,101014.38
2023-05-16T15:35:51.844Z,101003.63
2023-05-16T15:38:18.287Z,101004.28
2023-05-16T15:40:44.746Z,101005.59
2023-05-16T15:43:11.130Z,101016.75
2023-05-16T15:45:40.053Z,101005.38
2023-05-16T15:48:07.103Z,101005.94
2023-05-16T15:50:33.855Z,101020.44
2023-05-16T15:53:00.776Z,101048.22
2023-05-16T15:55:27.508Z,101027.06
2023-05-16T15:57:57.120Z,101028.75
2023-05-16T16:00:26.695Z,101028.66
2023-05-16T16:02:53.365Z,101033.81
2023-05-16T16:05:19.957Z,101021.25
2023-05-16T16:07:46.556Z,101028.94
2023-05-16T16:10:12.999Z,101032.66
2023-05-16T16:12:39.436Z,101029.28
2023-05-16T16:15:06.841Z,101029.59
2023-05-16T16:17:33.547Z,101035.50
2023-05-16T16:20:00.229Z,101020.31
2023-05-16T16:22:26.923Z,101034.16
2023-05-16T16:24:53.405Z,101044.25
2023-05-16T16:27:19.783Z,101039.38
2023-05-16T16:29:46.284Z,101040.31
2023-05-16T16:32:12.713Z,101036.47
2023-05-16T16:34:39.345Z,101042.31
2023-05-16T16:37:06.026Z,101029.78
2023-05-16T16:39:33.367Z,101023.66
2023-05-16T16:41:59.930Z,101030.13
2023-05-16T16:44:26.415Z,101040.72
2023-05-16T16:46:52.846Z,101045.47
2023-05-16T16:49:19.274Z,101046.47
2023-05-16T16:51:47.188Z,101049.00
2023-05-16T16:54:13.643Z,101068.38
2023-05-16T16:56:40.051Z,101066.66
2023-05-16T16:59:06.691Z,101080.09
2023-05-16T17:01:33.288Z,101062.06
2023-05-16T17:04:01.425Z,101063.22
2023-05-16T17:06:29.879Z,101066.94
2023-05-16T17:08:56.661Z,101075.69
2023-05-16T17:11:23.502Z,101066.19
2023-05-16T17:13:50.053Z,101071.78
2023-05-16T17:16:16.730Z,101074.44
2023-05-16T17:18:43.291Z,101071.88
2023-05-16T17:21:12.765Z,101080.44
2023-05-16T17:23:40.704Z,101081.81
2023-05-16T17:26:08.957Z,101085.00
2023-05-16T17:28:35.365Z,101087.34
2023-05-16T17:31:02.897Z,101082.31
2023-05-16T17:33:29.288Z,101090.75
2023-05-16T17:35:56.270Z,101096.94
2023-05-16T17:38:22.678Z,101084.97
2023-05-16T17:40:49.070Z,101101.56
2023-05-16T17:43:15.658Z,101106.13
2023-05-16T17:45:42.190Z,101097.72
2023-05-16T17:48:08.720Z,101114.25
2023-05-16T17:50:35.347Z,101098.16
2023-05-16T17:53:01.764Z,101106.66
2023-05-16T17:55:28.350Z,101095.19
2023-05-16T17:57:55.236Z,101106.16
2023-05-16T18:00:22.605Z,101107.00
2023-05-16T18:02:49.698Z,101099.91
2023-05-16T18:05:16.665Z,101086.75
2023-05-16T18:07:43.162Z,101096.19
2023-05-16T18:10:11.321Z,101095.13
2023-05-16T18:12:38.934Z,101106.47
2023-05-16T18:15:06.216Z,101104.94
2023-05-16T18:17:33.907Z,101108.03
2023-05-16T18:20:08.991Z,101121.19
2023-05-16T18:22:36.963Z,101117.75
2023-05-16T18:25:04.548Z,101117.88
2023-05-16T18:27:31.993Z,101114.97
2023-05-16T18:29:58.407Z,101118.50
2023-05-16T18:32:25.487Z,101113.09
2023-05-16T18:34:52.119Z,101123.84
2023-05-16T18:37:18.529Z,101123.56
2023-05-16T18:39:45.057Z,101128.56
2023-05-16T18:42:11.696Z,101140.25
2023-05-16T18:44:38.099Z,101130.09
2023-05-16T18:47:04.747Z,101135.09
2023-05-16T18:49:33.327Z,101132.91
2023-05-16T18:51:59.719Z,101134.00
2023-05-16T18:54:26.138Z,101136.00
2023-05-16T18:56:52.731Z,101132.16
2023-05-16T18:59:19.131Z,101139.81
2023-05-16T19:01:45.647Z,101141.25
2023-05-16T19:04:12.110Z,101142.97
2023-05-16T19:06:38.543Z,101148.25
2023-05-16T19:09:05.604Z,101154.56
2023-05-16T19:11:32.033Z,101149.41
2023-05-16T19:13:58.425Z,101152.97
2023-05-16T19:16:24.837Z,101150.34
2023-05-16T19:18:52.028Z,101162.22
2023-05-16T19:21:18.585Z,101167.47
2023-05-16T19:23:46.016Z,101178.03
2023-05-16T19:26:12.636Z,101170.28
2023-05-16T19:28:40.610Z,101181.25
2023-05-16T19:31:07.664Z,101174.44
2023-05-16T19:33:34.082Z,101176.44
2023-05-16T19:36:01.045Z,101180.94
2023-05-16T19:38:27.470Z,101190.59
2023-05-16T19:40:54.553Z,101194.66
2023-05-16T19:43:21.040Z,101181.16
2023-05-16T19:45:47.540Z,101190.22
2023-05-16T19:48:14.173Z,101189.69
2023-05-16T19:50:40.690Z,101180.00
2023-05-16T19:53:07.086Z,101183.50
2023-05-16T19:55:35.127Z,101180.13
2023-05-16T19:58:02.161Z,101190.06
2023-05-16T20:00:28.666Z,101196.97
2023-05-16T20:02:55.543Z,101183.34
2023-05-16T20:05:24.984Z,101192.84
2023-05-16T20:07:53.287Z,101196.97
2023-05-16T20:10:21.876Z,101202.50
2023-05-16T20:12:48.568Z,101196.66
2023-05-16T20:15:14.985Z,101196.53
2023-05-16T20:17:41.760Z,101199.06
2023-05-16T20:20:08.945Z,101196.13
2023-05-16T20:22:38.566Z,101189.25
2023-05-16T20:25:06.806Z,101196.31
2023-05-16T20:27:33.445Z,101188.69
2023-05-16T20:29:59.831Z,101192.06
2023-05-16T20:32:26.260Z,101204.22
2023-05-16T20:34:52.699Z,101204.50
2023-05-16T20:37:20.926Z,101200.31
2023-05-16T20:39:47.329Z,101202.38
2023-05-16T20:42:13.707Z,101208.38
2023-05-16T20:44:40.856Z,101209.53
2023-05-16T20:47:07.684Z,101201.97
2023-05-16T20:49:37.270Z,101200.16
2023-05-16T20:52:04.025Z,101195.75
2023-05-16T20:54:30.538Z,101200.94
2023-05-16T20:56:56.924Z,101195.69
2023-05-16T20:59:24.694Z,101197.41
2023-05-16T21:01:51.666Z,101196.53
2023-05-16T21:04:18.242Z,101182.09
2023-05-16T21:06:45.093Z,101189.19
2023-05-16T21:09:11.543Z,101181.91
2023-05-16T21:11:37.933Z,101188.97
2023-05-16T21:14:04.335Z,101196.28
2023-05-16T21:16:31.335Z,101187.22
2023-05-16T21:18:58.476Z,101198.09
2023-05-16T21:21:25.228Z,101187.34
2023-05-16T21:23:51.720Z,101201.53
2023-05-16T21:26:18.153Z,101189.53
2023-05-16T21:28:54.381Z,101193.13
2023-05-16T21:31:22.140Z,101187.25
2023-05-16T21:33:51.713Z,101181.91
2023-05-16T21:36:19.106Z,101178.75
2023-05-16T21:38:45.540Z,101169.34
2023-05-16T21:41:12.018Z,101171.75
2023-05-16T21:43:38.566Z,101174.16
2023-05-16T21:46:05.021Z,101177.81
2023-05-16T21:48:31.522Z,101169.06
2023-05-16T21:50:58.010Z,101168.25
2023-05-16T21:53:26.239Z,101168.47
2023-05-16T21:55:52.655Z,101166.88
2023-05-16T21:58:19.254Z,101161.75
2023-05-16T22:00:46.055Z,101161.66
2023-05-16T22:03:12.598Z,101153.91
2023-05-16T22:05:39.054Z,101158.25
2023-05-16T22:08:05.669Z,101157.41
2023-05-16T22:10:33.220Z,101154.69
2023-05-16T22:12:59.774Z,101153.81
2023-05-16T22:15:26.717Z,101142.78
2023-05-16T22:17:53.418Z,101140.19
2023-05-16T22:20:21.564Z,101115.84
2023-05-16T22:22:49.332Z,101114.16
2023-05-16T22:25:15.769Z,101116.88
2023-05-16T22:27:42.257Z,101096.75
2023-05-16T22:30:09.246Z,101096.88
2023-05-16T22:32:35.774Z,101089.16
2023-05-16T22:35:02.220Z,101078.53
2023-05-16T22:37:28.850Z,101083.88
2023-05-16T22:39:56.951Z,101060.50
2023-05-16T22:42:23.432Z,101049.91
2023-05-16T22:44:50.300Z,101055.13
2023-05-16T22:47:16.704Z,101046.56
2023-05-16T22:49:43.107Z,101044.66
2023-05-16T22:52:09.517Z,101050.66
2023-05-16T22:54:35.913Z,101048.16
2023-05-16T22:57:02.295Z,101034.38
2023-05-16T22:59:28.769Z,100996.25
2023-05-16T23:01:55.178Z,100983.97
2023-05-16T23:04:21.576Z,100972.56
2023-05-16T23:06:48.229Z,100960.44
2023-05-16T23:09:14.617Z,100942.19
2023-05-16T23:11:41.007Z,100928.34
2023-05-16T23:14:07.597Z,100924.94
2023-05-16T23:16:33.974Z,100899.66
2023-05-16T23:19:00.580Z,100884.78
2023-05-16T23:21:27.272Z,100898.63
2023-05-16T23:23:53.970Z,100902.81
2023-05-16T23:26:20.417Z,100925.41
2023-05-16T23:28:46.842Z,100933.19
2023-05-16T23:31:13.218Z,100920.28
2023-05-16T23:33:39.656Z,100906.38
2023-05-16T23:36:06.948Z,100900.25
2023-05-16T23:38:33.336Z,100904.47
2023-05-16T23:40:59.739Z,100901.84
2023-05-16T23:43:26.358Z,100902.00
2023-05-16T23:45:52.827Z,100888.97
2023-05-16T23:48:19.327Z,100888.06
2023-05-16T23:50:45.951Z,100883.75
2023-05-16T23:53:12.444Z,100882.84
2023-05-16T23:55:38.837Z,100877.84
2023-05-16T23:58:05.532Z,100862.22
